Time;durP1;ratioP1;P1;durP2;ratioP2;P2;SDS_P1;SDS_P2;PMS_P1;PMS_P2;Temp;Humidity;BMP_temperature;BMP_pressure;BME280_temperature;BME280_humidity;BME280_pressure;Samples;Min_cycle;Max_cycle;Signal;HPM_P1;HPM_P2
2021/04/03 00:01:16;;;;;;;;;;;;;;;5.15;70.72;102809.94;5069820;28;20289;-73
2021/04/03 00:03:41;;;;;;;;;;;;;;;5.19;70.78;102810.31;5072248;28;19920;-75
2021/04/03 00:06:07;;;;;;;;;;;;;;;5.22;71.31;102802.03;5070626;28;19919;-74
2021/04/03 00:08:32;;;;;;;;;;;;;;;5.22;71.07;102813.13;5071626;28;19913;-75
2021/04/03 00:11:01;;;;;;;;;;;;;;;5.22;70.75;102797.81;5050425;28;19912;-74
2021/04/03 00:13:29;;;;;;;;;;;;;;;5.20;70.85;102803.53;5069485;28;19920;-75
2021/04/03 00:15:54;;;;;;;;;;;;;;;5.12;71.87;102799.53;5066026;28;19921;-75
2021/04/03 00:18:19;;;;;;;;;;;;;;;5.06;72.31;102799.06;5066033;28;19912;-74
2021/04/03 00:20:46;;;;;;;;;;;;;;;5.15;71.72;102802.31;5067626;28;19991;-76
2021/04/03 00:23:11;;;;;;;;;;;;;;;5.12;72.05;102812.25;5050348;28;19912;-74
2021/04/03 00:25:36;;;;;;;;;;;;;;;5.07;72.03;102818.66;5068014;28;19919;-76
2021/04/03 00:28:02;;;;;;;;;;;;;;;4.99;72.72;102813.00;5044513;28;19920;-75
2021/04/03 00:30:27;;;;;;;;;;;;;;;4.88;72.97;102814.72;5046174;28;19913;-73
2021/04/03 00:32:59;;;;;;;;;;;;;;;4.86;73.35;102813.66;5069643;28;19916;-75
2021/04/03 00:35:26;;;;;;;;;;;;;;;4.81;73.33;102812.44;5069106;28;19920;-73
2021/04/03 00:37:54;;;;;;;;;;;;;;;4.86;72.97;102805.16;5069437;28;19923;-75
2021/04/03 00:40:20;;;;;;;;;;;;;;;4.93;72.98;102804.88;5052580;28;19919;-73
2021/04/03 00:42:46;;;;;;;;;;;;;;;4.92;72.21;102791.25;5069122;28;20053;-73
2021/04/03 00:45:12;;;;;;;;;;;;;;;4.98;71.88;102794.28;5053380;28;20002;-73
2021/04/03 00:47:37;;;;;;;;;;;;;;;5.05;71.96;102794.75;5071615;28;19913;-74
2021/04/03 00:50:03;;;;;;;;;;;;;;;5.04;71.30;102796.41;5069995;28;19919;-74
2021/04/03 00:52:29;;;;;;;;;;;;;;;5.14;70.53;102782.69;5069803;28;19956;-75
2021/04/03 00:54:54;;;;;;;;;;;;;;;5.09;70.51;102781.47;5069087;28;20471;-74
2021/04/03 00:57:19;;;;;;;;;;;;;;;5.08;71.49;102778.03;5047377;28;19966;-75
2021/04/03 00:59:45;;;;;;;;;;;;;;;5.17;70.68;102772.75;5066953;28;20011;-72
2021/04/03 01:02:10;;;;;;;;;;;;;;;5.12;71.49;102774.06;5066528;28;19951;-74
2021/04/03 01:04:36;;;;;;;;;;;;;;;5.20;71.15;102778.06;5050736;28;19912;-75
2021/04/03 01:07:02;;;;;;;;;;;;;;;5.19;71.23;102773.75;5051548;28;19916;-74
2021/04/03 01:09:27;;;;;;;;;;;;;;;5.22;71.50;102777.44;5050744;28;20351;-74
2021/04/03 01:12:15;;;;;;;;;;;;;;;5.22;71.00;102779.09;5041000;28;20426;-74
2021/04/03 01:14:46;;;;;;;;;;;;;;;5.24;71.16;102770.81;5041386;28;19917;-75
2021/04/03 01:17:47;;;;;;;;;;;;;;;5.22;71.46;102774.00;5069329;28;19916;-74
2021/04/03 01:20:25;;;;;;;;;;;;;;;5.17;72.11;102780.38;4987737;28;20009;-76
2021/04/03 01:23:08;;;;;;;;;;;;;;;5.17;71.91;102777.84;5056440;28;19918;-74
2021/04/03 01:25:36;;;;;;;;;;;;;;;5.29;71.69;102774.59;5052820;28;20010;-75
2021/04/03 01:28:21;;;;;;;;;;;;;;;5.20;71.63;102779.00;5052740;28;19912;-74
2021/04/03 01:30:47;;;;;;;;;;;;;;;5.23;71.33;102783.44;5051672;28;19920;-72
2021/04/03 01:33:14;;;;;;;;;;;;;;;5.21;71.55;102777.31;5069940;28;20001;-74
2021/04/03 01:35:39;;;;;;;;;;;;;;;5.21;72.06;102779.88;5069826;28;19919;-74
2021/04/03 01:38:06;;;;;;;;;;;;;;;5.16;72.14;102776.06;5069657;28;19912;-73
2021/04/03 01:40:33;;;;;;;;;;;;;;;5.24;72.33;102780.09;5065871;28;19912;-75
2021/04/03 01:43:19;;;;;;;;;;;;;;;5.26;71.43;102770.91;5069011;28;20419;-75
2021/04/03 01:45:44;;;;;;;;;;;;;;;5.34;71.20;102767.28;5067081;28;19916;-73
2021/04/03 01:48:10;;;;;;;;;;;;;;;5.42;70.29;102761.09;5068188;28;19917;-74
2021/04/03 01:50:39;;;;;;;;;;;;;;;5.31;70.76;102774.69;5051990;28;19919;-74
2021/04/03 01:53:05;;;;;;;;;;;;;;;5.37;70.41;102757.31;5069426;28;19998;-74
2021/04/03 01:55:30;;;;;;;;;;;;;;;5.37;70.94;102772.59;5051564;28;19955;-74
2021/04/03 01:57:56;;;;;;;;;;;;;;;5.39;70.66;102760.88;5052218;28;19943;-74
2021/04/03 02:00:24;;;;;;;;;;;;;;;5.36;71.00;102770.81;5061526;28;19928;-73
2021/04/03 02:02:50;;;;;;;;;;;;;;;5.31;69.95;102772.16;5062507;28;19912;-75
2021/04/03 02:05:16;;;;;;;;;;;;;;;5.30;71.53;102770.38;5049897;28;19974;-72
2021/04/03 02:07:43;;;;;;;;;;;;;;;5.30;68.76;102765.28;5051162;28;19912;-74
2021/04/03 02:10:08;;;;;;;;;;;;;;;5.40;69.44;102756.66;5048590;28;19963;-75
2021/04/03 02:12:35;;;;;;;;;;;;;;;5.41;69.24;102764.41;5052014;28;19959;-75
2021/04/03 02:15:02;;;;;;;;;;;;;;;5.32;67.52;102758.63;5068823;28;20436;-74
2021/04/03 02:17:28;;;;;;;;;;;;;;;5.31;67.88;102765.38;5062368;28;19913;-75
2021/04/03 02:19:53;;;;;;;;;;;;;;;5.31;67.55;102762.84;5066625;28;20313;-74
2021/04/03 02:22:19;;;;;;;;;;;;;;;5.33;66.27;102768.06;5063981;28;19999;-75
2021/04/03 02:24:44;;;;;;;;;;;;;;;5.37;65.99;102780.25;5069163;28;19987;-72
2021/04/03 02:27:10;;;;;;;;;;;;;;;5.38;66.70;102776.94;5050674;28;19912;-74
2021/04/03 02:29:35;;;;;;;;;;;;;;;5.40;65.51;102780.47;5050420;28;19955;-74
2021/04/03 02:32:00;;;;;;;;;;;;;;;5.41;66.75;102777.16;5069202;28;19919;-75
2021/04/03 02:34:25;;;;;;;;;;;;;;;5.37;66.56;102782.78;5069835;28;19917;-74
2021/04/03 02:36:51;;;;;;;;;;;;;;;5.37;66.62;102780.25;5069467;28;19919;-74
2021/04/03 02:39:16;;;;;;;;;;;;;;;5.39;66.06;102773.59;5069884;28;19912;-74
2021/04/03 02:41:41;;;;;;;;;;;;;;;5.36;66.29;102786.13;5070086;28;20298;-75
2021/04/03 02:44:11;;;;;;;;;;;;;;;5.38;66.03;102789.66;5051708;28;20397;-74
2021/04/03 02:46:47;;;;;;;;;;;;;;;5.41;66.47;102779.69;5067684;28;19919;-75
2021/04/03 02:49:19;;;;;;;;;;;;;;;5.47;67.54;102781.81;5060638;28;20338;-75
2021/04/03 02:51:46;;;;;;;;;;;;;;;5.39;65.70;102781.25;5066355;28;19920;-73
2021/04/03 02:54:13;;;;;;;;;;;;;;;5.43;66.28;102778.16;5071630;28;19920;-74
2021/04/03 02:56:41;;;;;;;;;;;;;;;5.43;66.07;102767.97;5071048;28;19916;-75
2021/04/03 02:59:11;;;;;;;;;;;;;;;5.47;65.65;102785.25;5072647;28;19919;-74
2021/04/03 03:01:36;;;;;;;;;;;;;;;5.43;64.74;102780.69;5055574;28;19912;-74
2021/04/03 03:04:01;;;;;;;;;;;;;;;5.43;66.58;102783.25;5055093;28;20036;-75
2021/04/03 03:06:30;;;;;;;;;;;;;;;5.46;66.09;102773.28;5054958;28;19973;-75
2021/04/03 03:08:55;;;;;;;;;;;;;;;5.44;67.28;102779.03;5073356;28;20007;-74
2021/04/03 03:11:22;;;;;;;;;;;;;;;5.44;67.71;102785.03;5054602;28;20019;-75
2021/04/03 03:13:48;;;;;;;;;;;;;;;5.42;68.14;102778.94;5054747;28;20345;-74
2021/04/03 03:16:14;;;;;;;;;;;;;;;5.46;67.38;102773.28;5063475;28;19956;-72
2021/04/03 03:18:40;;;;;;;;;;;;;;;5.37;68.46;102770.06;5052583;28;19912;-74
2021/04/03 03:21:06;;;;;;;;;;;;;;;5.45;67.92;102766.41;5052100;28;19919;-74
2021/04/03 03:23:31;;;;;;;;;;;;;;;5.45;67.72;102770.63;5069860;28;19920;-75
2021/04/03 03:25:56;;;;;;;;;;;;;;;5.46;67.75;102763.09;5070186;28;20374;-74
2021/04/03 03:28:23;;;;;;;;;;;;;;;5.51;67.29;102768.53;5060425;28;20007;-74
2021/04/03 03:30:48;;;;;;;;;;;;;;;5.48;68.01;102775.94;5046719;28;19913;-74
2021/04/03 03:33:14;;;;;;;;;;;;;;;5.52;67.72;102768.63;5070279;28;19946;-73
2021/04/03 03:35:39;;;;;;;;;;;;;;;5.55;65.86;102771.44;5071731;28;19918;-74
2021/04/03 03:38:04;;;;;;;;;;;;;;;5.51;66.59;102766.88;5072026;28;19923;-75
2021/04/03 03:40:31;;;;;;;;;;;;;;;5.45;67.36;102766.41;5061856;28;19912;-74
2021/04/03 03:42:56;;;;;;;;;;;;;;;5.48;66.01;102771.75;5051126;28;19913;-75
2021/04/03 03:45:21;;;;;;;;;;;;;;;5.47;66.41;102776.72;5051835;28;19932;-74
2021/04/03 03:47:46;;;;;;;;;;;;;;;5.47;66.58;102775.06;5051999;28;19913;-75
2021/04/03 03:50:12;;;;;;;;;;;;;;;5.46;67.31;102777.50;5053695;28;19967;-75
2021/04/03 03:52:37;;;;;;;;;;;;;;;5.43;66.18;102775.59;5071376;28;19916;-74
2021/04/03 03:55:03;;;;;;;;;;;;;;;5.44;66.93;102772.28;5053285;28;19912;-75
2021/04/03 03:57:28;;;;;;;;;;;;;;;5.43;67.33;102778.16;5071608;28;19912;-74
2021/04/03 03:59:53;;;;;;;;;;;;;;;5.45;67.12;102779.16;5071568;28;20035;-74
2021/04/03 04:02:19;;;;;;;;;;;;;;;5.45;66.82;102779.16;5049515;28;19919;-75
2021/04/03 04:04:44;;;;;;;;;;;;;;;5.41;66.93;102779.69;5070623;28;19912;-73
2021/04/03 04:07:09;;;;;;;;;;;;;;;5.38;67.60;102781.13;5053266;28;19912;-75
2021/04/03 04:09:35;;;;;;;;;;;;;;;5.36;67.41;102783.56;5053794;28;19935;-75
2021/04/03 04:12:04;;;;;;;;;;;;;;;5.39;67.16;102782.91;5070613;28;19958;-75
2021/04/03 04:14:30;;;;;;;;;;;;;;;5.36;68.06;102780.13;5072185;28;19999;-73
2021/04/03 04:16:55;;;;;;;;;;;;;;;5.41;68.47;102791.56;5066379;28;19913;-74
2021/04/03 04:19:20;;;;;;;;;;;;;;;5.44;68.16;102804.53;5050683;28;19982;-74
2021/04/03 04:21:46;;;;;;;;;;;;;;;5.58;67.50;102794.63;5069787;28;19943;-74
2021/04/03 04:24:11;;;;;;;;;;;;;;;5.51;67.50;102784.72;5051801;28;19920;-73
2021/04/03 04:26:36;;;;;;;;;;;;;;;5.50;67.77;102795.69;5053605;28;20294;-73
2021/04/03 04:29:01;;;;;;;;;;;;;;;5.56;67.50;102791.06;5071180;28;19958;-73
2021/04/03 04:31:26;;;;;;;;;;;;;;;5.47;68.42;102790.34;5070728;28;19981;-73
2021/04/03 04:33:52;;;;;;;;;;;;;;;5.51;68.59;102788.91;5070323;28;19920;-74
2021/04/03 04:36:17;;;;;;;;;;;;;;;5.43;69.63;102797.66;5052563;28;19940;-74
2021/04/03 04:38:42;;;;;;;;;;;;;;;5.42;70.67;102799.31;5071349;28;19912;-73
2021/04/03 04:41:07;;;;;;;;;;;;;;;5.49;69.67;102799.00;5070877;28;19920;-74
2021/04/03 04:43:32;;;;;;;;;;;;;;;5.50;69.92;102802.44;5071414;28;20007;-74
2021/04/03 04:45:58;;;;;;;;;;;;;;;5.46;70.60;102808.09;5053550;28;19943;-73
2021/04/03 04:48:23;;;;;;;;;;;;;;;5.46;70.68;102806.41;5050283;28;19917;-74
2021/04/03 04:50:48;;;;;;;;;;;;;;;5.51;70.50;102807.66;5047670;28;20038;-73
2021/04/03 04:53:13;;;;;;;;;;;;;;;5.42;72.07;102817.16;5048946;28;19920;-73
2021/04/03 04:55:39;;;;;;;;;;;;;;;5.45;71.38;102812.28;5051854;28;19920;-74
2021/04/03 04:58:04;;;;;;;;;;;;;;;5.42;71.70;102818.81;5050178;28;19912;-73
2021/04/03 05:00:29;;;;;;;;;;;;;;;5.37;72.02;102823.56;5049441;28;19920;-73
2021/04/03 05:02:54;;;;;;;;;;;;;;;5.41;72.09;102825.56;5071118;28;19912;-73
2021/04/03 05:05:19;;;;;;;;;;;;;;;5.39;72.10;102826.22;5052142;28;19919;-73
2021/04/03 05:07:45;;;;;;;;;;;;;;;5.31;72.85;102833.31;5052892;28;19974;-72
2021/04/03 05:10:11;;;;;;;;;;;;;;;5.31;73.00;102831.63;5070628;28;19920;-74
2021/04/03 05:12:36;;;;;;;;;;;;;;;5.27;73.25;102844.03;5068659;28;19959;-73
2021/04/03 05:15:01;;;;;;;;;;;;;;;5.30;73.03;102841.72;5070114;28;20069;-73
2021/04/03 05:17:26;;;;;;;;;;;;;;;5.29;73.47;102843.38;5052039;28;19977;-74
2021/04/03 05:19:52;;;;;;;;;;;;;;;5.31;73.64;102840.94;5070639;28;20293;-73
2021/04/03 05:22:17;;;;;;;;;;;;;;;5.29;73.32;102845.03;5071085;28;20038;-73
2021/04/03 05:24:42;;;;;;;;;;;;;;;5.24;73.32;102831.94;5070591;28;20469;-73
2021/04/03 05:27:08;;;;;;;;;;;;;;;5.28;73.10;102840.72;5071040;28;20460;-74
2021/04/03 05:29:33;;;;;;;;;;;;;;;5.16;73.94;102844.84;5069681;28;19978;-73
2021/04/03 05:31:58;;;;;;;;;;;;;;;5.19;74.68;102850.19;5052075;28;19908;-74
2021/04/03 05:34:23;;;;;;;;;;;;;;;5.13;74.66;102854.78;5069680;28;20523;-73
2021/04/03 05:36:48;;;;;;;;;;;;;;;5.09;74.75;102861.31;5070458;28;19912;-74
2021/04/03 05:39:14;;;;;;;;;;;;;;;5.08;75.11;102861.19;5068316;28;19916;-73
2021/04/03 05:41:39;;;;;;;;;;;;;;;5.09;75.17;102866.41;5048064;28;19916;-72
2021/04/03 05:44:04;;;;;;;;;;;;;;;5.26;74.74;102860.09;5048179;28;20434;-73
2021/04/03 05:46:30;;;;;;;;;;;;;;;5.25;74.82;102869.41;5049805;28;20377;-74
2021/04/03 05:48:55;;;;;;;;;;;;;;;5.37;74.30;102861.81;5052484;28;19955;-73
2021/04/03 05:51:21;;;;;;;;;;;;;;;5.45;74.05;102872.56;5041657;28;20602;-73
2021/04/03 05:53:47;;;;;;;;;;;;;;;5.76;72.46;102876.69;5047399;28;19916;-73
2021/04/03 05:56:14;;;;;;;;;;;;;;;5.85;72.38;102871.38;5066591;28;19912;-73
2021/04/03 05:58:39;;;;;;;;;;;;;;;5.99;72.13;102875.03;5051691;28;19918;-73
2021/04/03 06:01:05;;;;;;;;;;;;;;;6.27;71.19;102872.84;5068704;28;20380;-73
2021/04/03 06:03:30;;;;;;;;;;;;;;;6.47;69.81;102873.50;5051317;28;19922;-73
2021/04/03 06:05:56;;;;;;;;;;;;;;;6.51;69.75;102877.19;5068130;28;19912;-74
2021/04/03 06:08:21;;;;;;;;;;;;;;;6.83;69.09;102880.41;5052881;28;19913;-73
2021/04/03 06:11:05;;;;;;;;;;;;;;;7.11;68.27;102884.88;5070234;28;19971;-73
2021/04/03 06:13:30;;;;;;;;;;;;;;;7.30;67.24;102885.41;5070718;28;19995;-73
2021/04/03 06:15:56;;;;;;;;;;;;;;;7.35;66.67;102891.72;5070762;28;20342;-74
2021/04/03 06:18:21;;;;;;;;;;;;;;;7.75;66.24;102886.78;5066680;28;19924;-74
2021/04/03 06:20:47;;;;;;;;;;;;;;;7.97;65.12;102892.56;5069020;28;20373;-73
2021/04/03 06:23:12;;;;;;;;;;;;;;;8.20;64.52;102890.66;5069499;28;19919;-74
2021/04/03 06:25:57;;;;;;;;;;;;;;;8.51;63.03;102891.91;5069722;28;19916;-74
2021/04/03 06:28:29;;;;;;;;;;;;;;;8.70;63.12;102892.28;5072440;28;20317;-74
2021/04/03 06:30:59;;;;;;;;;;;;;;;9.00;62.92;102895.00;5074123;28;19931;-74
2021/04/03 06:33:24;;;;;;;;;;;;;;;9.04;61.99;102896.97;5056430;28;19927;-73
2021/04/03 06:36:07;;;;;;;;;;;;;;;9.33;61.84;102902.22;5056357;28;19912;-74
2021/04/03 06:38:32;;;;;;;;;;;;;;;9.76;60.99;102899.72;5056582;28;20251;-75
2021/04/03 06:41:16;;;;;;;;;;;;;;;9.97;59.46;102903.53;5073950;28;20462;-74
2021/04/03 06:43:42;;;;;;;;;;;;;;;10.25;59.42;102897.50;5056256;28;20003;-75
2021/04/03 06:46:36;;;;;;;;;;;;;;;10.28;59.35;102902.81;5072834;28;20015;-74
2021/04/03 06:49:02;;;;;;;;;;;;;;;10.60;57.88;102902.97;5056322;28;19991;-74
2021/04/03 06:51:28;;;;;;;;;;;;;;;10.78;55.83;102903.13;5073654;28;20039;-75
2021/04/03 06:53:54;;;;;;;;;;;;;;;11.14;56.27;102904.25;5056104;28;19920;-74
2021/04/03 06:56:20;;;;;;;;;;;;;;;11.46;55.87;102912.81;5072127;28;19936;-74
2021/04/03 06:58:46;;;;;;;;;;;;;;;11.71;54.40;102921.03;5048226;28;20337;-73
2021/04/03 07:01:12;;;;;;;;;;;;;;;11.85;53.87;102916.63;5069514;28;19947;-74
2021/04/03 07:03:39;;;;;;;;;;;;;;;12.09;53.46;102920.44;5073472;28;20374;-74
2021/04/03 07:06:05;;;;;;;;;;;;;;;12.22;52.86;102926.22;5073722;28;19920;-74
2021/04/03 07:08:31;;;;;;;;;;;;;;;12.44;52.04;102924.78;5055931;28;19920;-75
2021/04/03 07:10:57;;;;;;;;;;;;;;;12.36;51.48;102931.25;5067069;28;19943;-74
2021/04/03 07:13:22;;;;;;;;;;;;;;;12.66;51.50;102936.13;5050984;28;20370;-74
2021/04/03 07:15:51;;;;;;;;;;;;;;;12.67;51.31;102933.63;5070944;28;19983;-74
2021/04/03 07:18:17;;;;;;;;;;;;;;;12.68;50.47;102929.34;5055070;28;19912;-74
2021/04/03 07:20:43;;;;;;;;;;;;;;;13.00;48.35;102929.19;5054602;28;19916;-74
2021/04/03 07:23:10;;;;;;;;;;;;;;;12.87;48.88;102939.75;5072655;28;19912;-75
2021/04/03 07:25:37;;;;;;;;;;;;;;;12.88;48.49;102928.63;5072516;28;19964;-74
2021/04/03 07:28:03;;;;;;;;;;;;;;;13.20;48.67;102937.03;5072325;28;19999;-75
2021/04/03 07:30:34;;;;;;;;;;;;;;;13.68;47.43;102930.63;5067964;28;20003;-73
2021/04/03 07:33:07;;;;;;;;;;;;;;;13.77;46.41;102930.16;5070244;28;19917;-73
2021/04/03 07:35:35;;;;;;;;;;;;;;;14.07;46.67;102934.06;5069485;28;19957;-76
2021/04/03 07:38:06;;;;;;;;;;;;;;;14.04;47.15;102943.38;5072054;28;20293;-75
2021/04/03 07:40:36;;;;;;;;;;;;;;;14.45;46.91;102930.53;5072021;28;20035;-74
2021/04/03 07:43:02;;;;;;;;;;;;;;;14.40;46.42;102949.22;5054304;28;19936;-75
2021/04/03 07:45:30;;;;;;;;;;;;;;;14.54;46.48;102937.78;5064459;28;19959;-75
2021/04/03 07:47:55;;;;;;;;;;;;;;;14.49;45.77;102941.88;5044850;28;20033;-75
2021/04/03 07:50:39;;;;;;;;;;;;;;;14.06;45.96;102937.47;5063978;28;19944;-72
2021/04/03 07:53:05;;;;;;;;;;;;;;;14.34;47.28;102947.28;5059433;28;19958;-74
2021/04/03 07:55:41;;;;;;;;;;;;;;;14.60;44.19;102946.66;5047808;28;20015;-75
2021/04/03 07:58:22;;;;;;;;;;;;;;;14.44;45.03;102952.03;5068428;28;19916;-74
2021/04/03 08:00:48;;;;;;;;;;;;;;;15.10;44.68;102952.09;5050866;28;19912;-74
2021/04/03 08:03:14;;;;;;;;;;;;;;;15.96;43.45;102956.19;5046320;28;19919;-75
2021/04/03 08:05:39;;;;;;;;;;;;;;;16.16;42.73;102950.84;5067320;28;19912;-76
2021/04/03 08:08:05;;;;;;;;;;;;;;;16.13;41.83;102966.31;5051878;28;19916;-76
2021/04/03 08:10:30;;;;;;;;;;;;;;;15.89;40.27;102965.44;5068300;28;19912;-75
2021/04/03 08:12:56;;;;;;;;;;;;;;;16.25;41.43;102978.81;5067727;28;19952;-74
2021/04/03 08:15:22;;;;;;;;;;;;;;;16.13;40.41;102971.50;5052840;28;19920;-75
2021/04/03 08:17:51;;;;;;;;;;;;;;;15.72;40.95;102971.75;5070283;28;19912;-74
2021/04/03 08:20:16;;;;;;;;;;;;;;;14.79;41.90;102976.75;5070009;28;19912;-75
2021/04/03 08:23:00;;;;;;;;;;;;;;;14.93;42.45;102978.19;5049481;28;19919;-75
2021/04/03 08:25:26;;;;;;;;;;;;;;;15.42;43.53;102980.09;5042539;28;19920;-76
2021/04/03 08:27:51;;;;;;;;;;;;;;;15.93;42.20;102993.22;5068410;28;19919;-75
2021/04/03 08:30:22;;;;;;;;;;;;;;;16.58;40.57;102988.56;5069051;28;19986;-75
2021/04/03 08:33:07;;;;;;;;;;;;;;;15.80;41.13;102988.44;5071443;28;19916;-75
2021/04/03 08:35:33;;;;;;;;;;;;;;;16.09;41.84;103000.75;5065333;28;19912;-74
2021/04/03 08:38:11;;;;;;;;;;;;;;;16.26;42.52;102998.75;5068692;28;20281;-74
2021/04/03 08:40:36;;;;;;;;;;;;;;;16.61;39.46;103002.56;5066966;28;19924;-72
2021/04/03 08:43:02;;;;;;;;;;;;;;;16.62;40.38;102999.13;5042878;28;20362;-74
2021/04/03 08:45:37;;;;;;;;;;;;;;;17.12;39.89;102989.50;5048214;28;19920;-74
2021/04/03 08:48:02;;;;;;;;;;;;;;;17.19;38.34;102988.84;5069204;28;19919;-73
2021/04/03 08:50:27;;;;;;;;;;;;;;;16.93;39.49;102988.06;5046194;28;19928;-73
2021/04/03 08:53:03;;;;;;;;;;;;;;;16.85;39.12;102988.63;5046552;28;19916;-74
2021/04/03 08:55:29;;;;;;;;;;;;;;;16.03;40.76;103002.25;5049243;28;19912;-74
2021/04/03 08:57:55;;;;;;;;;;;;;;;15.28;42.36;102999.38;5049413;28;20356;-75
2021/04/03 09:00:21;;;;;;;;;;;;;;;14.45;44.34;103005.53;5070269;28;19916;-74
2021/04/03 09:02:46;;;;;;;;;;;;;;;13.64;45.65;102999.31;5070334;28;20340;-75
2021/04/03 09:05:12;;;;;;;;;;;;;;;13.32;45.78;103004.69;5071365;28;19919;-74
2021/04/03 09:07:38;;;;;;;;;;;;;;;14.43;46.18;102990.75;5053503;28;19912;-73
2021/04/03 09:10:04;;;;;;;;;;;;;;;15.16;42.52;102993.75;5071516;28;19919;-74
2021/04/03 09:12:30;;;;;;;;;;;;;;;14.75;42.40;102994.69;5069846;28;19919;-74
2021/04/03 09:14:55;;;;;;;;;;;;;;;14.32;44.29;103000.63;5053445;28;19913;-75
2021/04/03 09:17:21;;;;;;;;;;;;;;;14.43;45.87;103001.09;5071418;28;19978;-74
2021/04/03 09:19:47;;;;;;;;;;;;;;;15.68;44.23;102995.78;5071360;28;19912;-75
2021/04/03 09:22:13;;;;;;;;;;;;;;;15.55;41.86;103000.44;5069895;28;20389;-75
2021/04/03 09:24:42;;;;;;;;;;;;;;;15.30;43.68;103002.94;5071379;28;19920;-75
2021/04/03 09:27:08;;;;;;;;;;;;;;;14.93;43.36;103000.59;5071364;28;19919;-75
2021/04/03 09:29:33;;;;;;;;;;;;;;;14.15;44.93;103005.06;5071285;28;20050;-76
2021/04/03 09:32:03;;;;;;;;;;;;;;;13.77;46.28;102999.91;5052880;28;19999;-74
2021/04/03 09:34:31;;;;;;;;;;;;;;;13.99;46.66;103002.63;5071125;28;19959;-74
2021/04/03 09:36:57;;;;;;;;;;;;;;;14.38;44.54;102998.28;5071276;28;19912;-74
2021/04/03 09:39:22;;;;;;;;;;;;;;;14.23;45.17;102998.50;5070961;28;19912;-74
2021/04/03 09:41:54;;;;;;;;;;;;;;;14.04;44.63;102995.06;5052907;28;19970;-74
2021/04/03 09:44:19;;;;;;;;;;;;;;;13.82;47.31;103000.97;5069840;28;19916;-74
2021/04/03 09:46:45;;;;;;;;;;;;;;;14.01;47.33;102995.81;5070927;28;19998;-74
2021/04/03 09:49:11;;;;;;;;;;;;;;;14.27;44.88;102999.50;5053053;28;20293;-74
2021/04/03 09:51:37;;;;;;;;;;;;;;;14.09;44.17;103009.97;5052429;28;19912;-72
2021/04/03 09:54:02;;;;;;;;;;;;;;;14.87;44.79;102996.06;5052967;28;19916;-74
2021/04/03 09:56:27;;;;;;;;;;;;;;;14.63;43.05;102997.63;5071128;28;19939;-74
2021/04/03 09:58:53;;;;;;;;;;;;;;;13.88;45.21;103009.00;5070801;28;20340;-74
2021/04/03 10:01:18;;;;;;;;;;;;;;;14.33;45.65;103007.56;5055044;28;19912;-74
2021/04/03 10:03:44;;;;;;;;;;;;;;;14.99;44.65;103003.44;5057097;28;19916;-75
2021/04/03 10:06:09;;;;;;;;;;;;;;;15.81;43.73;103006.63;5056338;28;19912;-75
2021/04/03 10:08:34;;;;;;;;;;;;;;;16.60;41.42;103011.16;5074798;28;19938;-75
2021/04/03 10:11:00;;;;;;;;;;;;;;;16.24;41.52;103012.47;5074575;28;19912;-75
2021/04/03 10:13:25;;;;;;;;;;;;;;;15.57;43.05;103010.88;5074767;28;20019;-74
2021/04/03 10:15:50;;;;;;;;;;;;;;;15.22;42.56;103019.88;5057736;28;19912;-74
2021/04/03 10:18:15;;;;;;;;;;;;;;;14.65;44.59;103019.31;5074580;28;19965;-75
2021/04/03 10:20:43;;;;;;;;;;;;;;;15.18;43.45;103016.28;5074214;28;20001;-74
2021/04/03 10:23:08;;;;;;;;;;;;;;;16.47;41.47;103016.75;5056680;28;19919;-75
2021/04/03 10:25:33;;;;;;;;;;;;;;;16.96;39.62;103006.31;5074655;28;19916;-74
2021/04/03 10:27:58;;;;;;;;;;;;;;;17.36;40.40;103008.44;5074631;28;19938;-74
2021/04/03 10:30:23;;;;;;;;;;;;;;;17.87;37.18;103005.63;5074436;28;19920;-75
2021/04/03 10:32:48;;;;;;;;;;;;;;;18.39;37.73;102999.22;5074321;28;20383;-74
2021/04/03 10:35:14;;;;;;;;;;;;;;;19.19;36.68;103018.59;5074255;28;20461;-75
2021/04/03 10:37:39;;;;;;;;;;;;;;;19.51;34.31;103011.50;5056277;28;19912;-75
2021/04/03 10:40:05;;;;;;;;;;;;;;;19.63;35.17;103010.91;5074223;28;20404;-75
2021/04/03 10:42:30;;;;;;;;;;;;;;;19.78;33.79;103015.53;5073965;28;20377;-76
2021/04/03 10:44:55;;;;;;;;;;;;;;;20.46;33.89;103013.38;5056307;28;19939;-75
2021/04/03 10:47:20;;;;;;;;;;;;;;;20.44;33.00;103008.13;5056212;28;20366;-76
2021/04/03 10:49:46;;;;;;;;;;;;;;;20.31;31.35;103015.69;5056020;28;19920;-76
2021/04/03 10:52:11;;;;;;;;;;;;;;;20.42;33.69;103017.66;5073936;28;19920;-74
2021/04/03 10:54:36;;;;;;;;;;;;;;;20.52;31.28;103010.03;5056050;28;19917;-75
2021/04/03 10:57:01;;;;;;;;;;;;;;;21.15;31.56;103006.66;5056148;28;20409;-75
2021/04/03 10:59:26;;;;;;;;;;;;;;;20.88;31.44;103009.75;5074008;28;19913;-75
2021/04/03 11:01:51;;;;;;;;;;;;;;;21.33;33.73;103002.59;5073586;28;20290;-75
2021/04/03 11:04:17;;;;;;;;;;;;;;;20.96;30.96;103005.50;5073929;28;20013;-75
2021/04/03 11:06:42;;;;;;;;;;;;;;;21.33;30.92;102993.88;5073477;28;19919;-75
2021/04/03 11:09:07;;;;;;;;;;;;;;;20.75;32.76;102991.25;5074001;28;19912;-75
2021/04/03 11:11:32;;;;;;;;;;;;;;;21.53;29.64;102996.75;5072757;28;19912;-75
2021/04/03 11:13:57;;;;;;;;;;;;;;;20.55;32.24;103002.25;5055701;28;19916;-76
2021/04/03 11:16:23;;;;;;;;;;;;;;;20.67;31.12;102997.22;5073734;28;19959;-75
2021/04/03 11:18:48;;;;;;;;;;;;;;;19.87;29.73;103003.59;5073360;28;19916;-75
2021/04/03 11:21:13;;;;;;;;;;;;;;;19.86;33.61;103004.44;5073204;28;19923;-76
2021/04/03 11:23:38;;;;;;;;;;;;;;;20.99;32.05;102990.75;5073520;28;20215;-75
2021/04/03 11:26:03;;;;;;;;;;;;;;;20.13;31.95;103000.56;5073528;28;19955;-74
2021/04/03 11:28:29;;;;;;;;;;;;;;;19.27;31.30;103000.53;5073338;28;19913;-76
2021/04/03 11:30:54;;;;;;;;;;;;;;;18.59;32.53;102994.53;5073056;28;19999;-75
2021/04/03 11:33:19;;;;;;;;;;;;;;;19.00;34.89;102994.69;5073326;28;19992;-74
2021/04/03 11:35:45;;;;;;;;;;;;;;;17.88;35.86;102996.97;5070538;28;20314;-76
2021/04/03 11:38:10;;;;;;;;;;;;;;;17.21;37.98;102992.38;5055380;28;19919;-75
2021/04/03 11:40:35;;;;;;;;;;;;;;;16.57;40.36;103000.66;5072742;28;19912;-72
2021/04/03 11:43:01;;;;;;;;;;;;;;;15.92;39.74;102995.78;5073188;28;19912;-75
2021/04/03 11:45:26;;;;;;;;;;;;;;;15.59;41.85;102990.22;5055251;28;19965;-74
2021/04/03 11:47:52;;;;;;;;;;;;;;;15.60;42.53;102990.28;5055028;28;19912;-75
2021/04/03 11:50:17;;;;;;;;;;;;;;;15.76;41.57;102991.75;5054907;28;20606;-75
2021/04/03 11:52:43;;;;;;;;;;;;;;;15.54;41.55;102983.13;5056521;28;20449;-77
2021/04/03 11:55:08;;;;;;;;;;;;;;;15.07;42.54;102993.38;5058065;28;19919;-78
2021/04/03 11:57:34;;;;;;;;;;;;;;;14.91;43.64;102991.88;5058931;28;20377;-77
2021/04/03 11:59:59;;;;;;;;;;;;;;;14.53;44.26;102993.78;5059991;28;19913;-76
2021/04/03 12:02:24;;;;;;;;;;;;;;;14.10;45.00;102993.63;5078719;28;19954;-77
2021/04/03 12:04:49;;;;;;;;;;;;;;;13.81;45.76;102997.50;5060570;28;20003;-78
2021/04/03 12:07:14;;;;;;;;;;;;;;;13.43;44.66;102990.59;5058556;28;19912;-77
2021/04/03 12:09:40;;;;;;;;;;;;;;;13.74;45.98;102992.00;5076312;28;19965;-77
2021/04/03 12:12:06;;;;;;;;;;;;;;;13.76;43.16;102991.25;5057548;28;19912;-77
2021/04/03 12:14:32;;;;;;;;;;;;;;;13.70;42.89;102984.13;5057113;28;19923;-77
2021/04/03 12:16:57;;;;;;;;;;;;;;;13.91;43.65;102981.59;5061886;28;19912;-78
2021/04/03 12:19:22;;;;;;;;;;;;;;;13.97;43.83;102980.97;5077710;28;19912;-76
2021/04/03 12:21:47;;;;;;;;;;;;;;;13.70;45.27;102984.13;5077711;28;19912;-77
2021/04/03 12:24:12;;;;;;;;;;;;;;;13.50;44.86;102986.59;5058483;28;19951;-77
2021/04/03 12:26:38;;;;;;;;;;;;;;;13.38;46.94;102984.34;5059308;28;19947;-76
2021/04/03 12:29:03;;;;;;;;;;;;;;;13.26;45.30;102979.47;5056882;28;19920;-76
2021/04/03 12:31:28;;;;;;;;;;;;;;;13.15;44.95;102979.78;5056513;28;20392;-77
2021/04/03 12:33:53;;;;;;;;;;;;;;;12.94;47.99;102975.34;5058192;28;20464;-77
2021/04/03 12:36:19;;;;;;;;;;;;;;;12.70;48.08;102974.19;5074457;28;19919;-76
2021/04/03 12:38:44;;;;;;;;;;;;;;;12.40;49.54;102969.28;5059972;28;19919;-77
2021/04/03 12:41:10;;;;;;;;;;;;;;;12.25;49.63;102981.38;5075891;28;19923;-76